To NAV CANADA Home Page Login to a new session Search on AWWS site Disclaimer Vers la page française équivalente Tips FAQ What's new on the site To the Forecasts and Observations / NOTAM section To "File a Flight Plan" website Publications and other links Update of the User's profile FIC Telephone Numbers My Weather Data Folder Route Weather Data Regional Weather Data Local Weather Data To the Forecasts and Observations / NOTAM section
Request Generated 04/25/2019 at 08:30:12 UTC . Weather information available at that time is displayed.

METAR/TAF

DAUPHIN (LT. COL W.G.(BILLY) BARKER, VC)/MB    (show WxCam)

METAR CYDN 250800Z AUTO 29008KT 9SM CLR 02/M06 A2980 RMK SLP100=
METAR CYDN 250700Z AUTO 24009KT 9SM CLR 03/M05 A2977 RMK SLP092=
METAR CYDN 250600Z AUTO 26008KT 9SM CLR 04/M05 A2977 RMK SLP090=

TAF CYDN 250538Z 2506/2518 28010KT P6SM SKC
FM250900 27015KT P6SM SCT080 SCT140
BECMG 2512/2514 27020G35KT
RMK FCST BASED ON AUTO OBS. NXT FCST BY 251200Z=
Your time UTC time
Weather data provided by Environment Canada and NAV CANADA